Airfield :
LOGIN :

Register | Disclaimer

   EN    FR    IT 

 










Legend :    VFR   Marginal VFR   IFR   Intensive IFR   Very Intensive IFR
Visi :
Ceiling :
>= 8 km
>= 3000ft
5 to 8 km
1000 to 3000 ft
1500m to 5 km
500 to 1000 ft
800 to 1500m
200 to 500 ft
< 800m
< 200 ft
Symbols :   Thunderstorms  Fog  Heavy snow  Heavy precipitations  Wind > 20 kt
SIGMETs :     Misc.  Thunderstorms  Icing  Turbulence  Mountain Waves  Volcanic Ashes






- Airport Elevation : 459 ft
- IATA code : CER


LFRC - Cherbourg / Maupertus

CURRENT METAR :
  • 180230Z AUTO 36003KT 0550 0500 R28/0800U FG VV/// ///TCU 14/14 Q1011

EXPIRED METARs :
  • 180200Z AUTO 01003KT 0350 R28/0450N FG VV/// 14/14 Q1012
  • 180130Z AUTO 01004KT 0300 R28/0350N FG VV/// 14/14 Q1012
  • 180100Z AUTO 36004KT 330V030 0300 R28/0375N FG VV/// 15/14 Q1012
  • 180030Z AUTO 35004KT 310V010 0350 R28/0400N FG VV/// 15/14 Q1012
  • 180000Z AUTO 01005KT 340V040 0500 R28/0700N FG VV/// 15/14 Q1012

Expired Forecast.



MET'MAP, your aeronautical weather chart ! - Copyright ORBIFLY December 2007 - Disclaimer

ORBIFLY MET'MAP TEAM :

Programming & Development : Alexandra Zaïnal
Concept & original design : Baudouin d'Aumeries
Assistance for programming : Marc-Olivier Méhu
Technical & hardware support : Manuel Goepfert

Contact : metmap@orbifly.com




SOURCES & CREDITS :

   NOAA